Airfield :
LOGIN :

Register | Disclaimer

   EN    FR    IT 

 










Legend :    VFR   Marginal VFR   IFR   Intensive IFR   Very Intensive IFR
Visi :
Ceiling :
>= 8 km
>= 3000ft
5 to 8 km
1000 to 3000 ft
1500m to 5 km
500 to 1000 ft
800 to 1500m
200 to 500 ft
< 800m
< 200 ft
Symbols :   Thunderstorms  Fog  Heavy snow  Heavy precipitations  Wind > 20 kt
SIGMETs :     Misc.  Thunderstorms  Icing  Turbulence  Mountain Waves  Volcanic Ashes






- Airport Elevation : 49 ft
- IATA code : GLZ


EHGR - Gilze-Rijen Airbase

CURRENT METAR :
  • 181225Z AUTO 23016KT 190V280 9999 FEW031 SCT036 BKN160 14/07 Q1003 BLU

EXPIRED METARs :
  • 181155Z AUTO 23016G31KT 190V280 9999 BKN033 BKN038 14/07 Q1003 BLU
  • 181125Z AUTO 22013G25KT 200V260 9999 SCT031 BKN035 OVC041 13/08 Q1003 BLU
  • 181055Z AUTO 21016G26KT 180V260 9999 BKN030 OVC036 13/07 Q1002 BLU
  • 181025Z AUTO 21015KT 170V280 9999 BKN029 OVC032 13/08 Q1002 BLU
  • 180955Z AUTO 20014G28KT 150V260 9999 SCT030 BKN034 BKN040 13/09 Q1002 BLU

TAF TAF EHGR
Valid from the 18 at 05:00 until the 18 at 17:00 UTC


180424Z 1805/1817 17007KT 9999 SCT025
BECMG 1806/1809 22015G25KT
TEMPO 1808/1813 23016G30KT 3000 SHRA TSRAGS SCT012 SCT018CB BKN020
PROB30
TEMPO 1813/1817 FEW015 SCT020CB



MET'MAP, your aeronautical weather chart ! - Copyright ORBIFLY December 2007 - Disclaimer

ORBIFLY MET'MAP TEAM :

Programming & Development : Alexandra Zaïnal
Concept & Development : Baudouin d'Aumeries
Co-Development & Prog : Marc-Olivier Méhu
Technical & hardware support : Manuel Goepfert

Contact : metmap@orbifly.com




SOURCES & CREDITS :

   NOAA